Monday, September 22, 2014
20:20 UTC
  |  Log In   |  Register Free
Airport Search:

Norwood Memorial Airport
(KOWD)

FAA data valid effective September 18, 2014 - November 13, 2014 (unless otherwise noted).

 
 
 
 
 
 
 
 
 
 
 
 
 
 

Current Aviation Weather for Norwood Memorial Airport (KOWD)

The most recent METAR observation for KOWD was updated at: 1915
METAR Summary (Translated METAR)
KOWD
221853Z 29015G26KT 10SM CLR 22/06 A2979 RMK AO2 PK WND 30029/1829 SLP087 T02170061
KBOS
221954Z 25017G24KT 10SM FEW050 21/06 A2980 RMK AO2 PK WND 29028/1914 SLP089 T02110061
(12.7 nm NE from KOWD)
KBED
221956Z 28014G24KT 10SM CLR 19/06 A2981 RMK AO2 PK WND 27027/1912 SLP104 T01940056
(17.5 nm NW from KOWD)
TAF Summary (Translated TAF)
KBOS
(12.7 nm NE from KOWD)
221732Z 2218/2324 27016G24KT P6SM SCT050 FM222200 29015KT P6SM FEW250 FM230500 30009KT P6SM SKC FM231700 23007KT P6SM FEW250
KBED
(17.5 nm NW from KOWD)
221732Z 2218/2318 28014G24KT P6SM SCT050 FM222200 29010G19KT P6SM FEW250 FM230000 29006KT P6SM FEW250 FM231100 00000KT P6SM SKC FM231700 28006KT P6SM FEW250
  Airport Weather Conditions for KOWD

 Current Weather at OWD
71° F
Fair
West winds at 17.3 mph
OWD NOAA Radar

Pressure: 29.79 in
Humidity: 36%
Wind: from the West at 17.3 gusting to 29.9 MPH (15 gusting to 26 KT)
Dew Point: 43.0°F
Visibility: 10.00 mi


Airport Weather Forecast for KOWD

Translated METAR and TAF for KOWD
Translated METAR for KOWD (2014 UTC 22 September 2014)
found at http://aviationweather.gov/adds/metars/
 
METAR text: KOWD 221953Z 29012G19KT 10SM CLR 21/06 A2981 RMK AO2 PK WND 28026/1858 SLP093 T02060061
Conditions at: KOWD (NORWOOD , MA, US) observed 1953 UTC 22 September 2014
Temperature: 20.6°C (69°F)
Dewpoint: 6.1°C (43°F) [RH = 39%]
Pressure (altimeter): 29.81 inches Hg (1009.6 mb)
[Sea-level pressure: 1009.3 mb]
Winds: from the WNW (290 degrees) at 14 MPH (12 knots; 6.2 m/s)
gusting to 22 MPH (19 knots; 9.9 m/s)
Visibility: 10 or more miles (16+ km)
Ceiling: at least 12,000 feet AGL
Clouds: sky clear below 12,000 feet AGL
Weather: no significant weather observed at this time
Translated TAF for KOWD

There is no translated TAF available for this airport

Find All Airport Services Find A Hotel Find A Rental Car Find A Golf Course Find A Restaurant $100 Hamburger



FBO's on the Field
FBO Company Facility Photos Services Transportation Aviation Fuel Prices: Prices include tax
Catering Weather Repair Courtesy Rental Type 100LL JetA JetA+ MOGAS 8087
 
FlightLevel Aviation

Currently rated 2.7 by 2 people
FS:Shell
Last Updated: Sep-15
Login to update fuel prices
SS:
Contact FlightLevel AviationMore FBO Information
 
Add another FBO Facility Photos Catering Weather Repair Courtesy Rental Type 100LL JetA JetA+ MOGAS 8087
Services Transportation Aviation Fuel Prices: Prices include tax


model-print
model-print
model-print
model-print